• Join FlightAware (Why Join?)
  • Login
  • US Flag 
02:00AM EDT


 

Airport Tracker/Info


-or-


 

Live Flight TrackerFlight Track Log ✈ SWA1688 ✈ 23-May-2013 ✈ KMCO - KALB

Flight Track Log - Related Links

Times and Time Zones

All times are in EDT time to prevent confusion due to time zone crossing. See the SWA1688 flight status page for this flight to view local times or setup timezone preferences in your user account.

Time Position Orientation Groundspeed Altitude Reporting Facility
EDT Latitude Longitude Course Direction KTS MPH feet Rate Location/Type
09:34PM 28.4167 -81.3000 196° South 156 180 500  Level Orlando TRACON
09:35PM 28.3667 -81.3167 196° South 210 242 3,200 2,580 Climbing Orlando TRACON
09:36PM 28.3167 -81.3667 221° Southwest 216 249 6,000 2,880 Climbing Orlando TRACON
09:37PM 28.3667 -81.4000 330° Northwest 273 314 8,400 2,880 Climbing Orlando TRACON
09:39PM 28.5297 -81.4322 350° North 323 372 14,800 3,180 Climbing Jacksonville Center
09:40PM 28.6278 -81.4356 358° North 337 388 18,300 3,000 Climbing Jacksonville Center
09:41PM 28.7322 -81.4411 357° North 353 406 20,900 2,760 Climbing Jacksonville Center
09:42PM 28.8431 -81.4467 357° North 375 432 23,900 2,520 Climbing Jacksonville Center
09:43PM 28.9558 -81.4522 358° North 392 451 26,000 1,020 Climbing Jacksonville Center
09:44PM 29.0706 -81.4578 358° North 402 463 26,000 660 Level Jacksonville Center
09:45PM 29.1856 -81.4631 358° North 408 470 27,400 1,740 Climbing Jacksonville Center
09:46PM 29.3150 -81.4708 357° North 414 476 29,500 1,860 Climbing Jacksonville Center
09:47PM 29.4422 -81.4736 359° North 430 495 31,200 1,680 Climbing Jacksonville Center
09:48PM 29.5678 -81.4814 357° North 441 507 33,000 1,800 Climbing Jacksonville Center
09:49PM 29.6950 -81.4844 359° North 448 516 34,900 1,920 Climbing Jacksonville Center
09:50PM 29.8183 -81.4897 358° North 448 516 36,900 1,680 Climbing Jacksonville Center
09:51PM 29.9414 -81.4758 North 443 510 38,400 1,200 Climbing Jacksonville Center
09:52PM 30.0517 -81.4431 14° North 443 510 39,400 1,020 Climbing Jacksonville Center
09:53PM 30.1700 -81.3908 21° North 448 516 40,500 780 Climbing Jacksonville Center
09:54PM 30.2883 -81.3386 21° North 453 521 41,000 240 Climbing Jacksonville Center
09:55PM 30.4047 -81.2886 20° North 448 516 41,000  Level Jacksonville Center
09:56PM 30.5189 -81.2408 20° North 442 509 41,000  Level Jacksonville Center
09:57PM 30.6353 -81.1928 20° North 442 509 41,000  Level Jacksonville Center
09:58PM 30.7494 -81.1425 21° North 442 509 41,000  Level Jacksonville Center
09:59PM 30.8633 -81.0919 21° North 442 509 41,000  Level Jacksonville Center
10:00PM 30.9797 -81.0436 20° North 442 509 41,000  Level Jacksonville Center
10:01PM 31.0958 -80.9953 20° North 442 509 41,000  Level Jacksonville Center
10:02PM 31.2119 -80.9444 21° North 442 509 41,000  Level Jacksonville Center
10:03PM 31.3303 -80.8933 20° North 442 509 41,000  Level Jacksonville Center
10:04PM 31.4442 -80.8372 23° Northeast 447 514 41,000  Level Jacksonville Center
10:05PM 31.5747 -80.7808 20° North 441 507 41,000  Level Jacksonville Center
10:06PM 31.6764 -80.7369 20° North 441 507 41,000  Level Jacksonville Center
10:07PM 31.8047 -80.6803 21° North 447 514 41,000  Level Jacksonville Center
10:08PM 31.9228 -80.6283 20° North 446 513 41,000  Level Jacksonville Center
10:09PM 32.0306 -80.5842 19° North 446 513 41,000  Level Jacksonville Center
10:10PM 32.1467 -80.5272 23° Northeast 446 513 41,000  Level Jacksonville Center
10:11PM 32.2667 -80.4750 20° North 446 513 41,000  Level Jacksonville Center
10:12PM 32.3867 -80.4203 21° North 446 513 41,000  Level Jacksonville Center
10:13PM 32.5067 -80.3675 20° North 446 513 41,000  Level Jacksonville Center
10:14PM 32.6244 -80.3125 21° North 446 513 41,000  Level Jacksonville Center
10:15PM 32.7444 -80.2572 21° North 446 513 41,000  Level Jacksonville Center
10:16PM 32.8644 -80.2019 21° North 446 513 41,000  Level Jacksonville Center
10:17PM 32.9864 -80.1461 21° North 454 522 41,000  Level Jacksonville Center
10:18PM 33.1083 -80.0903 21° North 454 522 41,000  Level Jacksonville Center
10:19PM 33.2425 -80.0292 21° North 468 539 41,000  Level Jacksonville Center
10:20PM 33.3603 -79.9781 20° North 455 524 41,000  Level Jacksonville Center
10:21PM 33.4781 -79.9244 21° North 455 524 41,000  Level Jacksonville Center
10:22PM 33.5978 -79.8681 21° North 455 524 41,000  Level Jacksonville Center
10:23PM 33.7217 -79.8114 21° North 455 524 41,000  Level Jacksonville Center
10:24PM 33.8392 -79.7547 22° Northeast 460 529 41,000  Level Jacksonville Center
10:25PM 33.9628 -79.6978 21° North 466 536 41,000  Level Jacksonville Center
10:26PM 34.0867 -79.6431 20° North 466 536 41,000  Level Jacksonville Center
10:27PM 34.2083 -79.5858 21° North 466 536 41,000  Level Jacksonville Center
10:29PM 34.3939 -79.4956 22° Northeast 469 540 41,000  Level Washington Center
10:30PM 34.5169 -79.4383 21° North 474 545 41,000  Level Washington Center
10:31PM 34.6397 -79.3783 22° Northeast 474 545 41,000  Level Washington Center
10:32PM 34.7647 -79.3211 21° North 474 545 41,000  Level Washington Center
10:33PM 34.8875 -79.2633 21° North 474 545 41,000  Level Washington Center
10:34PM 35.0125 -79.2031 22° Northeast 474 545 41,000  Level Washington Center
10:35PM 35.1353 -79.1450 21° North 479 551 41,000  Level Washington Center
10:36PM 35.2600 -79.0869 21° North 479 551 41,000  Level Washington Center
10:37PM 35.3869 -79.0264 21° North 479 551 41,000  Level Washington Center
10:38PM 35.5019 -78.9419 31° Northeast 474 545 41,000  Level Washington Center
10:39PM 35.6133 -78.8444 35° Northeast 479 551 41,000  Level Washington Center
10:40PM 35.7369 -78.7394 35° Northeast 484 557 41,000  Level Washington Center
10:41PM 35.8461 -78.6389 37° Northeast 489 563 41,000  Level Washington Center
10:42PM 35.9592 -78.5406 35° Northeast 489 563 41,000  Level Washington Center
10:43PM 36.0700 -78.4419 36° Northeast 489 563 41,000  Level Washington Center
10:44PM 36.1808 -78.3428 36° Northeast 489 563 41,000  Level Washington Center
10:45PM 36.2894 -78.2436 36° Northeast 484 557 41,000  Level Washington Center
10:46PM 36.3786 -78.1692 34° Northeast 484 557 41,000  Level Washington Center
10:47PM 36.4958 -78.0594 37° Northeast 484 557 41,000  Level Washington Center
10:48PM 36.6042 -77.9619 36° Northeast 484 557 41,000  Level Washington Center
10:49PM 36.7103 -77.8642 36° Northeast 484 557 41,000  Level Washington Center
10:50PM 36.8314 -77.7561 36° Northeast 484 557 41,000  Level Washington Center
10:51PM 36.9394 -77.6553 37° Northeast 484 557 41,000  Level Washington Center
10:52PM 37.0497 -77.5567 36° Northeast 484 557 41,000  Level Washington Center
10:53PM 37.1597 -77.4578 36° Northeast 484 557 41,000  Level Washington Center
10:54PM 37.2697 -77.3561 36° Northeast 484 557 41,000  Level Washington Center
10:55PM 37.3794 -77.2592 35° Northeast 484 557 41,000  Level Washington Center
10:56PM 37.4894 -77.1467 39° Northeast 484 557 41,000  Level Washington Center
10:57PM 37.5928 -77.0594 34° Northeast 489 563 41,000  Level Washington Center
10:58PM 37.7025 -76.9542 37° Northeast 494 568 41,000  Level Washington Center
10:59PM 37.8100 -76.8508 37° Northeast 494 568 41,000  Level Washington Center
11:00PM 37.9175 -76.7500 36° Northeast 488 562 41,000  Level Washington Center
11:01PM 38.0267 -76.6461 37° Northeast 488 562 41,000  Level Washington Center
11:02PM 38.1361 -76.5447 36° Northeast 488 562 41,000  Level Washington Center
11:03PM 38.2472 -76.4406 36° Northeast 488 562 41,000  Level Washington Center
11:04PM 38.3628 -76.3278 37° Northeast 477 549 41,000  Level Washington Center
11:05PM 38.4758 -76.2256 35° Northeast 482 555 41,000  Level Washington Center
11:06PM 38.5786 -76.1333 35° Northeast 496 571 41,000  Level Washington Center
11:07PM 38.6894 -76.0278 37° Northeast 501 577 41,000  Level Washington Center
11:08PM 38.8003 -75.9247 36° Northeast 496 571 41,000  Level Washington Center
11:09PM 38.9111 -75.8183 37° Northeast 496 571 41,000  Level Washington Center
11:10PM 39.0217 -75.7200 35° Northeast 491 565 41,000  Level Washington Center
11:11PM 39.1300 -75.6156 37° Northeast 491 565 41,000  Level Washington Center
11:12PM 39.2342 -75.5058 39° Northeast 485 558 41,000  Level Washington Center
11:13PM 39.3403 -75.3983 38° Northeast 485 558 41,000 -540 Level Washington Center
11:14PM 39.4486 -75.2906 38° Northeast 485 558 40,000 -1,200 Descending Washington Center
11:15PM 39.5544 -75.1769 40° Northeast 485 558 38,600 -1,500 Descending Washington Center
11:16PM 39.6769 -75.0497 39° Northeast 490 564 37,000 -1,080 Descending Washington Center
11:18PM 39.9458 -74.7700 39° Northeast 498 573 35,000 -600 Descending New York Center
11:19PM 40.0317 -74.6314 51° Northeast 493 567 35,000 -300 Level New York Center
11:20PM 40.1172 -74.4950 51° Northeast 493 567 34,400 -840 Descending New York Center
11:21PM 40.2089 -74.3639 48° Northeast 493 567 33,400 -1,020 Descending New York Center
11:22PM 40.3286 -74.2614 33° Northeast 487 560 32,500 -960 Descending New York Center
11:23PM 40.4464 -74.1581 34° Northeast 492 566 31,500 -1,860 Descending New York Center
11:25PM 40.6328 -74.0044 32° Northeast 504 580 27,300 -2,640 Descending Boston Center
11:26PM 40.7697 -73.8869 33° Northeast 498 573 24,200 -1,680 Descending Boston Center
11:27PM 40.8650 -73.7739 42° Northeast 478 550 24,000 -240 Descending Boston Center
11:28PM 40.9558 -73.6575 44° Northeast 454 522 23,800 -480 Descending Boston Center
11:29PM 41.0861 -73.5636 29° Northeast 443 510 23,000 -420 Descending Boston Center
11:30PM 41.2053 -73.5272 13° North 433 498 23,000 -480 Level Boston Center
11:31PM 41.3239 -73.5292 359° North 421 484 22,100 -1,020 Descending Boston Center
11:32PM 41.4469 -73.5283 360° North 426 490 21,000 -960 Descending Boston Center
11:34PM 41.5636 -73.5306 359° North 426 490 20,100 -960 Descending Boston Center
11:35PM 41.6928 -73.5381 358° North 420 483 19,000 -1,680 Descending Boston Center
11:36PM 41.8175 -73.5683 350° North 420 483 16,800 -2,280 Descending Boston Center
11:36PM 41.8508 -73.5772 349° North 409 471 16,100 -2,100 Descending Boston Center
11:37PM 41.9131 -73.5922 350° North 401 461 14,700 -2,280 Descending Boston Center
11:38PM 42.0294 -73.6222 349° North 386 444 12,300 -1,860 Descending Boston Center
11:39PM 42.1208 -73.6492 348° North 381 438 11,000 -780 Descending Boston Center
11:40PM 42.2519 -73.6769 351° North 351 404 10,600 -540 Descending Boston Center
11:41PM 42.3100 -73.6950 347° North 357 411 10,000 -1,140 Descending Boston Center
11:41PM 42.3392 -73.7011 351° North 317 365 9,500 -1,500 Descending Boston Center
11:42PM 42.3972 -73.7250 343° North 304 350 8,500 -1,380 Descending Boston Center
11:42PM 42.4158 -73.7367 335° Northwest 287 330 8,100 -1,380 Descending Boston Center
11:43PM 42.4822 -73.7772 336° Northwest 282 325 6,900 -1,440 Descending Boston Center
11:44PM 42.5272 -73.8319 318° Northwest 274 315 5,700 -1,080 Descending Boston Center
11:45PM 42.5917 -73.8531 346° North 261 300 5,000 -660 Descending Boston Center
11:46PM 42.6581 -73.8769 345° North 248 285 4,400 -600 Descending Boston Center
11:47PM 42.7206 -73.8869 353° North 238 274 3,900 -720 Descending Boston Center
11:48PM 42.7767 -73.8856 North 220 253 3,000 -720 Descending Boston Center
11:49PM 42.8350 -73.8869 359° North 211 243 2,500 -420 Descending Boston Center
11:49PM 42.8539 -73.8900 353° North 194 223 2,500  Level Boston Center
11:50PM 42.8892 -73.8881 North 186 214 2,500  Level Boston Center
11:50PM 42.9081 -73.8831 11° North 197 227 2,500  Level Boston Center
11:51PM 42.9150 -73.8406 77° East 150 173 2,500 -480 Level Boston Center
11:51PM 42.9006 -73.8233 139° Southeast 175 201 2,000 -420 Descending Boston Center
11:52PM 42.8464 -73.8136 173° South 168 193 1,900 -420 Descending Boston Center
11:53PM 42.8089 -73.8100 176° South 144 166 1,200 -660 Descending Boston Center
11:54PM 42.7736 -73.8064 176° South 114 131 600 -600 Descending Boston Center
11:55PM 42.7491 -73.8020 176° South  Level Estimated
12:02AM 42.7491 -73.8020 176° South  Level Estimated